createdAt,value
2019-03-05T00:01:25.852Z,57.76
2019-03-05T00:03:55.334Z,58.08
2019-03-05T00:06:25.043Z,57.69
2019-03-05T00:08:55.954Z,57.77
2019-03-05T00:11:25.395Z,58.23
2019-03-05T00:13:54.919Z,58.79
2019-03-05T00:16:24.301Z,58.79
2019-03-05T00:18:53.754Z,58.55
2019-03-05T00:21:23.203Z,58.73
2019-03-05T00:24:15.907Z,58.64
2019-03-05T00:26:45.745Z,59.17
2019-03-05T00:29:41.646Z,58.88
2019-03-05T00:32:11.214Z,59.94
2019-03-05T00:34:53.191Z,59.38
2019-03-05T00:38:02.614Z,59.43
2019-03-05T00:40:59.055Z,59.51
2019-03-05T00:44:06.089Z,59.98
2019-03-05T00:47:10.388Z,60.66
2019-03-05T00:50:00.789Z,60.58
2019-03-05T00:53:10.967Z,61.38
2019-03-05T00:56:05.102Z,63.14
2019-03-05T00:58:58.719Z,63.46
2019-03-05T01:02:05.267Z,63.46
2019-03-05T01:04:54.520Z,63.26
2019-03-05T01:07:25.259Z,63.45
2019-03-05T01:09:55.070Z,63.41
2019-03-05T01:12:25.231Z,63.34
2019-03-05T01:14:56.176Z,63.34
2019-03-05T01:17:25.931Z,63.48
2019-03-05T01:19:55.323Z,63.64
2019-03-05T01:22:24.790Z,63.78
2019-03-05T01:24:54.205Z,63.78
2019-03-05T01:27:23.554Z,64.93
2019-03-05T01:29:52.942Z,64.67
2019-03-05T01:32:47.552Z,64.67
2019-03-05T01:35:25.778Z,65.44
2019-03-05T01:37:55.604Z,65.32
2019-03-05T01:40:50.127Z,64.94
2019-03-05T01:43:19.505Z,65.19
2019-03-05T01:45:48.868Z,64.71
2019-03-05T01:48:18.299Z,64.90
2019-03-05T01:50:47.679Z,65.56
2019-03-05T01:53:17.059Z,65.07
2019-03-05T01:55:46.408Z,64.87
2019-03-05T01:58:15.772Z,64.72
2019-03-05T02:00:45.142Z,64.18
2019-03-05T02:03:14.557Z,64.39
2019-03-05T02:05:43.979Z,64.19
2019-03-05T02:08:13.536Z,64.19
2019-03-05T02:10:43.020Z,64.66
2019-03-05T02:13:12.511Z,64.66
2019-03-05T02:15:41.918Z,64.30
2019-03-05T02:18:17.794Z,63.71
2019-03-05T02:20:47.398Z,64.16
2019-03-05T02:23:24.417Z,63.57
2019-03-05T02:26:27.972Z,63.57
2019-03-05T02:29:29.310Z,63.54
2019-03-05T02:32:45.377Z,63.60
2019-03-05T02:35:38.209Z,63.16
2019-03-05T02:38:51.145Z,63.16
2019-03-05T02:41:48.558Z,62.67
2019-03-05T02:45:07.620Z,65.14
2019-03-05T02:48:12.964Z,65.14
2019-03-05T02:51:26.568Z,65.34
2019-03-05T02:54:41.227Z,65.34
2019-03-05T02:57:09.783Z,65.43
2019-03-05T02:59:39.444Z,65.82
2019-03-05T03:02:37.612Z,66.83
2019-03-05T03:05:41.637Z,66.92
2019-03-05T03:08:11.028Z,68.45
2019-03-05T03:10:40.380Z,68.73
2019-03-05T03:13:09.775Z,68.32
2019-03-05T03:15:39.319Z,68.56
2019-03-05T03:18:08.700Z,68.79
2019-03-05T03:20:38.117Z,68.15
2019-03-05T03:23:07.475Z,68.20
2019-03-05T03:25:36.838Z,68.69
2019-03-05T03:28:06.229Z,67.80
2019-03-05T03:30:35.576Z,67.58
2019-03-05T03:33:04.949Z,67.68
2019-03-05T03:35:34.306Z,67.15
2019-03-05T03:38:03.732Z,67.10
2019-03-05T03:40:33.103Z,67.21
2019-03-05T03:43:02.588Z,67.65
2019-03-05T03:45:31.921Z,67.28
2019-03-05T03:48:01.485Z,66.86
2019-03-05T03:50:30.862Z,66.95
2019-03-05T03:53:00.212Z,67.33
2019-03-05T03:55:29.722Z,67.14
2019-03-05T03:57:59.051Z,66.01
2019-03-05T04:00:28.642Z,66.23
2019-03-05T04:02:58.015Z,66.59
2019-03-05T04:05:27.381Z,66.53
2019-03-05T04:07:56.755Z,66.64
2019-03-05T04:10:26.130Z,66.42
2019-03-05T04:12:55.612Z,66.21
2019-03-05T04:15:25.010Z,65.21
2019-03-05T04:17:54.396Z,65.73
2019-03-05T04:20:35.325Z,66.43
2019-03-05T04:23:04.710Z,66.42
2019-03-05T04:25:34.931Z,66.42
2019-03-05T04:28:04.326Z,66.01
2019-03-05T04:30:33.735Z,66.01
2019-03-05T04:33:03.126Z,66.27
2019-03-05T04:35:32.522Z,65.85
2019-03-05T04:38:01.891Z,65.52
2019-03-05T04:40:31.267Z,64.63
2019-03-05T04:43:00.621Z,65.60
2019-03-05T04:46:05.647Z,65.60
2019-03-05T04:48:35.078Z,66.37
2019-03-05T04:51:32.423Z,66.72
2019-03-05T04:54:01.802Z,65.69
2019-03-05T04:56:31.182Z,66.26
2019-03-05T04:59:00.560Z,66.26
2019-03-05T05:01:29.963Z,66.44
2019-03-05T05:03:59.349Z,66.44
2019-03-05T05:06:28.768Z,65.52
2019-03-05T05:08:58.139Z,65.34
2019-03-05T05:11:27.565Z,65.34
2019-03-05T05:13:57.010Z,65.72
2019-03-05T05:16:26.371Z,65.72
2019-03-05T05:18:55.783Z,64.78
2019-03-05T05:21:25.233Z,64.68
2019-03-05T05:23:54.685Z,64.66
2019-03-05T05:26:24.945Z,64.34
2019-03-05T05:28:54.309Z,63.74
2019-03-05T05:31:23.695Z,62.82
2019-03-05T05:33:53.075Z,62.03
2019-03-05T05:36:22.436Z,62.68
2019-03-05T05:38:51.893Z,61.87
2019-03-05T05:41:21.251Z,61.94
2019-03-05T05:43:50.658Z,62.62
2019-03-05T05:46:20.032Z,62.79
2019-03-05T05:48:49.430Z,62.44
2019-03-05T05:51:18.855Z,62.61
2019-03-05T05:53:48.185Z,62.57
2019-03-05T05:56:17.541Z,61.88
2019-03-05T05:58:47.174Z,60.87
2019-03-05T06:01:16.535Z,60.72
2019-03-05T06:03:45.913Z,61.17
2019-03-05T06:06:15.309Z,60.20
2019-03-05T06:08:44.775Z,59.15
2019-03-05T06:11:14.111Z,57.88
2019-03-05T06:13:43.791Z,57.34
2019-03-05T06:16:14.207Z,56.24
2019-03-05T06:18:43.745Z,55.11
2019-03-05T06:21:13.209Z,54.29
2019-03-05T06:23:42.685Z,53.42
2019-03-05T06:26:12.109Z,54.17
2019-03-05T06:28:41.567Z,54.05
2019-03-05T06:31:11.068Z,53.54
2019-03-05T06:33:40.586Z,53.48
2019-03-05T06:36:10.127Z,53.60
2019-03-05T06:38:39.632Z,52.54
2019-03-05T06:41:09.190Z,52.04
2019-03-05T06:43:38.561Z,53.02
2019-03-05T06:46:07.938Z,52.56
2019-03-05T06:48:37.258Z,52.18
2019-03-05T06:51:06.904Z,51.96
2019-03-05T06:53:36.289Z,50.83
2019-03-05T06:56:05.801Z,49.96
2019-03-05T06:58:35.322Z,49.61
2019-03-05T07:01:04.761Z,48.90
2019-03-05T07:03:34.411Z,48.83
2019-03-05T07:06:39.689Z,48.09
2019-03-05T07:09:38.502Z,47.47
2019-03-05T07:12:27.424Z,46.05
2019-03-05T07:15:39.938Z,44.91
2019-03-05T07:18:13.452Z,43.73
2019-03-05T07:21:17.758Z,43.32
2019-03-05T07:24:14.776Z,41.95
2019-03-05T07:26:44.200Z,42.17
2019-03-05T07:29:13.547Z,41.36
2019-03-05T07:31:43.842Z,40.24
2019-03-05T07:34:19.385Z,40.06
2019-03-05T07:36:48.869Z,39.09
2019-03-05T07:39:22.428Z,39.22
2019-03-05T07:41:51.804Z,38.48
2019-03-05T07:44:21.258Z,37.47
2019-03-05T07:46:50.651Z,37.88
2019-03-05T07:49:20.808Z,37.02
2019-03-05T07:51:50.775Z,36.98
2019-03-05T07:54:20.290Z,37.34
2019-03-05T07:56:49.667Z,37.22
2019-03-05T07:59:19.039Z,37.27
2019-03-05T08:01:48.505Z,36.73
2019-03-05T08:04:17.929Z,36.80
2019-03-05T08:06:47.790Z,35.80
2019-03-05T08:09:38.567Z,35.96
2019-03-05T08:12:45.536Z,36.55
2019-03-05T08:16:08.827Z,36.24
2019-03-05T08:18:38.401Z,35.63
2019-03-05T08:21:08.161Z,35.56
2019-03-05T08:23:37.685Z,36.44
2019-03-05T08:26:07.559Z,36.44
2019-03-05T08:28:37.783Z,37.39
2019-03-05T08:31:07.576Z,36.30
2019-03-05T08:33:37.038Z,34.84
2019-03-05T08:36:07.438Z,34.46
2019-03-05T08:38:36.824Z,34.11
2019-03-05T08:41:06.212Z,34.14
2019-03-05T08:43:35.675Z,34.47
2019-03-05T08:46:05.197Z,33.75
2019-03-05T08:48:34.583Z,33.26
2019-03-05T08:51:03.929Z,32.93
2019-03-05T08:53:33.822Z,32.03
2019-03-05T08:56:03.228Z,31.72
2019-03-05T08:58:32.633Z,30.62
2019-03-05T09:01:02.010Z,30.99
2019-03-05T09:03:31.388Z,30.97
2019-03-05T09:06:00.770Z,31.29
2019-03-05T09:08:30.145Z,31.35
2019-03-05T09:10:59.626Z,30.28
2019-03-05T09:13:32.554Z,29.90
2019-03-05T09:16:00.174Z,29.85
2019-03-05T09:18:29.581Z,29.81
2019-03-05T09:20:59.003Z,29.85
2019-03-05T09:23:29.261Z,29.63
2019-03-05T09:25:58.708Z,29.95
2019-03-05T09:28:28.090Z,29.64
2019-03-05T09:30:57.893Z,29.20
2019-03-05T09:33:27.421Z,29.08
2019-03-05T09:36:00.080Z,29.45
2019-03-05T09:38:30.428Z,29.20
2019-03-05T09:40:59.964Z,29.43
2019-03-05T09:43:29.361Z,28.44
2019-03-05T09:45:58.872Z,29.16
2019-03-05T09:48:28.296Z,28.64
2019-03-05T09:50:57.767Z,28.12
2019-03-05T09:53:27.173Z,27.12
2019-03-05T09:55:56.791Z,26.83
2019-03-05T09:58:26.821Z,27.01
2019-03-05T10:00:56.347Z,26.46
2019-03-05T10:03:28.756Z,26.55
2019-03-05T10:05:58.569Z,27.05
2019-03-05T10:08:32.474Z,27.06
2019-03-05T10:11:09.324Z,26.41
2019-03-05T10:17:18.079Z,26.95
2019-03-05T10:19:46.816Z,27.51
2019-03-05T10:22:16.240Z,27.60
2019-03-05T10:24:45.617Z,27.06
2019-03-05T10:27:15.953Z,27.33
2019-03-05T10:29:45.353Z,26.46
2019-03-05T10:32:14.997Z,26.64
2019-03-05T10:34:44.426Z,26.18
2019-03-05T10:37:18.771Z,26.63
2019-03-05T10:39:45.632Z,26.67
2019-03-05T10:42:15.267Z,27.06
2019-03-05T10:44:44.641Z,27.56
2019-03-05T10:47:14.254Z,26.94
2019-03-05T10:49:44.660Z,26.99
2019-03-05T10:52:14.340Z,27.93
2019-03-05T10:54:44.584Z,27.33
2019-03-05T10:57:15.384Z,28.36
2019-03-05T10:59:45.732Z,28.86
2019-03-05T11:02:16.714Z,28.82
2019-03-05T11:04:46.205Z,28.81
2019-03-05T11:07:16.373Z,29.14
2019-03-05T11:09:45.811Z,29.40
2019-03-05T11:12:15.153Z,29.66
2019-03-05T11:14:44.660Z,30.34
2019-03-05T11:17:14.167Z,30.39
2019-03-05T11:19:43.555Z,30.75
2019-03-05T11:22:13.019Z,31.32
2019-03-05T11:24:42.600Z,31.32
2019-03-05T11:27:12.034Z,31.41
2019-03-05T11:29:41.426Z,31.61
2019-03-05T11:32:11.036Z,31.39
2019-03-05T11:34:40.425Z,31.29
2019-03-05T11:37:09.978Z,31.68
2019-03-05T11:39:40.878Z,32.20
2019-03-05T11:42:10.638Z,32.30
2019-03-05T11:44:43.090Z,32.46
2019-03-05T11:47:12.608Z,32.72
2019-03-05T11:49:42.889Z,32.95
2019-03-05T11:52:12.206Z,33.01
2019-03-05T11:54:41.610Z,33.23
2019-03-05T11:57:11.071Z,33.12
2019-03-05T11:59:42.202Z,32.95
2019-03-05T12:02:21.382Z,33.12
2019-03-05T12:04:42.801Z,33.11
2019-03-05T12:07:12.171Z,33.37
2019-03-05T12:09:41.747Z,33.48
2019-03-05T12:12:11.149Z,33.41
2019-03-05T12:14:40.547Z,33.47
2019-03-05T12:17:10.063Z,33.55
2019-03-05T12:19:39.437Z,33.56
2019-03-05T12:22:08.917Z,33.58
2019-03-05T12:24:38.309Z,33.78
2019-03-05T12:27:08.086Z,33.75
2019-03-05T12:29:37.468Z,33.95
2019-03-05T12:32:06.929Z,33.63
2019-03-05T12:34:37.461Z,33.64
2019-03-05T12:37:06.839Z,33.79
2019-03-05T12:39:36.247Z,33.93
2019-03-05T12:42:05.624Z,33.82
2019-03-05T12:44:34.995Z,33.75
2019-03-05T12:47:04.517Z,33.73
2019-03-05T12:49:33.868Z,33.67
2019-03-05T12:52:03.249Z,33.57
2019-03-05T12:54:32.651Z,33.62
2019-03-05T12:57:02.068Z,33.66
2019-03-05T12:59:31.491Z,33.56
2019-03-05T13:02:00.891Z,33.51
2019-03-05T13:04:30.224Z,33.52
2019-03-05T13:06:59.591Z,33.36
2019-03-05T13:09:29.032Z,33.33
2019-03-05T13:11:58.479Z,33.24
2019-03-05T13:14:27.859Z,33.22
2019-03-05T13:16:57.263Z,33.25
2019-03-05T13:19:26.683Z,33.34
2019-03-05T13:21:56.085Z,33.32
2019-03-05T13:24:25.494Z,33.27
2019-03-05T13:26:54.830Z,33.30
2019-03-05T13:29:24.197Z,33.46
2019-03-05T13:31:53.586Z,33.53
2019-03-05T13:34:22.944Z,33.64
2019-03-05T13:36:52.346Z,33.62
2019-03-05T13:39:23.694Z,33.92
2019-03-05T13:41:54.150Z,33.87
2019-03-05T13:44:37.139Z,33.99
2019-03-05T13:47:10.079Z,33.91
2019-03-05T13:50:13.589Z,34.17
2019-03-05T13:53:14.857Z,34.28
2019-03-05T13:56:30.299Z,34.23
2019-03-05T13:59:44.135Z,34.18
2019-03-05T14:02:15.365Z,34.53
2019-03-05T14:05:31.363Z,34.61
2019-03-05T14:08:43.359Z,34.61
2019-03-05T14:11:12.761Z,34.97
2019-03-05T14:13:42.501Z,35.02
2019-03-05T14:16:13.480Z,35.15
2019-03-05T14:18:42.924Z,35.32
2019-03-05T14:21:12.318Z,35.57
2019-03-05T14:23:41.932Z,35.49
2019-03-05T14:26:11.284Z,35.70
2019-03-05T14:28:40.651Z,35.73
2019-03-05T14:31:10.049Z,35.76
2019-03-05T14:33:39.415Z,35.81
2019-03-05T14:36:08.824Z,35.89
2019-03-05T14:38:38.218Z,35.90
2019-03-05T14:41:07.870Z,35.90
2019-03-05T14:43:37.307Z,36.07
2019-03-05T14:46:06.757Z,36.13
2019-03-05T14:48:36.288Z,36.11
2019-03-05T14:51:05.883Z,36.36
2019-03-05T14:53:35.283Z,36.56
2019-03-05T14:56:04.668Z,36.35
2019-03-05T14:58:34.080Z,36.42
2019-03-05T15:01:03.480Z,36.49
2019-03-05T15:03:33.174Z,36.54
2019-03-05T15:06:02.560Z,36.84
2019-03-05T15:08:31.986Z,37.05
2019-03-05T15:11:01.345Z,36.72
2019-03-05T15:13:30.857Z,36.91
2019-03-05T15:16:00.628Z,36.95
2019-03-05T15:18:30.254Z,36.94
2019-03-05T15:20:59.617Z,37.30
2019-03-05T15:23:29.391Z,37.19
2019-03-05T15:25:59.035Z,37.22
2019-03-05T15:28:28.438Z,37.17
2019-03-05T15:30:57.823Z,37.18
2019-03-05T15:33:27.165Z,37.46
2019-03-05T15:35:56.686Z,37.46
2019-03-05T15:38:26.042Z,37.78
2019-03-05T15:40:55.421Z,38.03
2019-03-05T15:43:24.874Z,38.19
2019-03-05T15:45:54.268Z,37.83
2019-03-05T15:48:23.901Z,37.88
2019-03-05T15:50:53.325Z,38.29
2019-03-05T15:53:22.766Z,38.35
2019-03-05T15:55:52.172Z,38.25
2019-03-05T15:58:21.601Z,38.53
2019-03-05T16:00:50.971Z,38.73
2019-03-05T16:03:20.456Z,39.10
2019-03-05T16:05:49.844Z,39.15
2019-03-05T16:08:20.954Z,39.26
2019-03-05T16:10:54.078Z,39.31
2019-03-05T16:13:21.532Z,39.44
2019-03-05T16:15:50.925Z,39.67
2019-03-05T16:18:20.348Z,40.01
2019-03-05T16:20:49.698Z,40.21
2019-03-05T16:23:19.047Z,40.50
2019-03-05T16:25:50.314Z,40.82
2019-03-05T16:28:20.274Z,41.02
2019-03-05T16:31:03.995Z,41.19
2019-03-05T16:33:55.036Z,41.36
2019-03-05T16:36:53.304Z,41.74
2019-03-05T16:39:37.551Z,42.61
2019-03-05T16:42:41.947Z,43.05
2019-03-05T16:45:24.179Z,43.50
2019-03-05T16:48:19.002Z,43.96
2019-03-05T16:51:06.192Z,44.38
2019-03-05T16:53:54.561Z,44.77
2019-03-05T16:56:54.947Z,45.21
2019-03-05T16:59:43.617Z,45.33
2019-03-05T17:02:41.184Z,45.42
2019-03-05T17:05:37.818Z,45.72
2019-03-05T17:08:29.106Z,46.19
2019-03-05T17:11:16.182Z,46.19
2019-03-05T17:13:45.547Z,46.24
2019-03-05T17:16:14.955Z,46.47
2019-03-05T17:18:44.359Z,46.56
2019-03-05T17:21:13.672Z,46.71
2019-03-05T17:23:43.392Z,46.92
2019-03-05T17:26:12.862Z,47.01
2019-03-05T17:28:42.308Z,47.41
2019-03-05T17:31:11.802Z,47.57
2019-03-05T17:33:41.182Z,47.81
2019-03-05T17:36:10.962Z,47.85
2019-03-05T17:38:41.237Z,48.04
2019-03-05T17:41:10.856Z,48.41
2019-03-05T17:43:42.730Z,48.55
2019-03-05T17:46:12.485Z,48.86
2019-03-05T17:48:41.893Z,49.14
2019-03-05T17:51:11.401Z,49.34
2019-03-05T17:53:40.843Z,49.41
2019-03-05T17:56:12.920Z,49.62
2019-03-05T17:58:42.310Z,49.69
2019-03-05T18:01:11.703Z,49.81
2019-03-05T18:03:41.213Z,49.89
2019-03-05T18:06:10.619Z,50.06
2019-03-05T18:08:40.932Z,50.16
2019-03-05T18:11:10.584Z,50.44
2019-03-05T18:13:39.965Z,50.77
2019-03-05T18:16:09.539Z,50.73
2019-03-05T18:18:41.113Z,50.92
2019-03-05T18:21:10.467Z,51.05
2019-03-05T18:23:40.018Z,51.18
2019-03-05T18:26:09.717Z,51.44
2019-03-05T18:28:39.102Z,51.61
2019-03-05T18:31:08.927Z,51.89
2019-03-05T18:33:38.307Z,52.03
2019-03-05T18:36:07.654Z,52.37
2019-03-05T18:38:37.236Z,52.26
2019-03-05T18:41:06.697Z,52.45
2019-03-05T18:43:36.100Z,52.55
2019-03-05T18:46:06.903Z,52.52
2019-03-05T18:48:36.301Z,52.36
2019-03-05T18:51:05.827Z,52.34
2019-03-05T18:53:35.516Z,52.23
2019-03-05T18:56:05.157Z,52.57
2019-03-05T18:58:34.825Z,52.93
2019-03-05T19:01:04.465Z,53.04
2019-03-05T19:03:33.845Z,53.06
2019-03-05T19:06:03.289Z,53.32
2019-03-05T19:08:32.896Z,53.36
2019-03-05T19:11:02.361Z,53.55
2019-03-05T19:13:31.951Z,53.71
2019-03-05T19:16:02.675Z,53.87
2019-03-05T19:18:32.033Z,53.91
2019-03-05T19:21:01.585Z,53.76
2019-03-05T19:23:30.940Z,53.99
2019-03-05T19:26:00.309Z,53.98
2019-03-05T19:28:29.662Z,53.83
2019-03-05T19:30:59.042Z,53.75
2019-03-05T19:33:28.483Z,53.95
2019-03-05T19:35:57.865Z,54.05
2019-03-05T19:38:27.250Z,54.23
2019-03-05T19:40:56.591Z,54.33
2019-03-05T19:43:26.279Z,54.42
2019-03-05T19:45:55.668Z,54.56
2019-03-05T19:48:25.459Z,54.54
2019-03-05T19:50:55.904Z,54.73
2019-03-05T19:53:25.284Z,54.79
2019-03-05T19:55:54.607Z,54.81
2019-03-05T19:58:24.334Z,55.01
2019-03-05T20:01:02.343Z,54.96
2019-03-05T20:03:31.759Z,55.09
2019-03-05T20:06:01.106Z,55.21
2019-03-05T20:08:39.450Z,55.91
2019-03-05T20:11:02.684Z,55.99
2019-03-05T20:13:34.599Z,56.19
2019-03-05T20:16:06.129Z,56.26
2019-03-05T20:18:35.564Z,56.30
2019-03-05T20:21:05.250Z,56.36
2019-03-05T20:23:35.042Z,56.45
2019-03-05T20:26:04.620Z,56.51
2019-03-05T20:28:35.782Z,56.44
2019-03-05T20:31:05.239Z,56.63
2019-03-05T20:33:34.831Z,56.64
2019-03-05T20:36:04.334Z,56.67
2019-03-05T20:38:33.834Z,56.87
2019-03-05T20:41:03.243Z,56.82
2019-03-05T20:43:32.703Z,56.86
2019-03-05T20:46:12.347Z,56.77
2019-03-05T20:48:41.738Z,56.71
2019-03-05T20:51:11.271Z,56.77
2019-03-05T20:53:40.715Z,56.94
2019-03-05T20:56:10.529Z,56.78
2019-03-05T20:58:39.964Z,56.94
2019-03-05T21:01:10.833Z,57.27
2019-03-05T21:03:40.332Z,58.07
2019-03-05T21:06:09.780Z,59.02
2019-03-05T21:08:43.043Z,60.22
2019-03-05T21:11:12.480Z,61.07
2019-03-05T21:13:41.910Z,61.59
2019-03-05T21:16:11.302Z,62.84
2019-03-05T21:18:40.532Z,64.90
2019-03-05T21:21:09.946Z,68.32
2019-03-05T21:23:39.332Z,71.08
2019-03-05T21:26:08.705Z,74.29
2019-03-05T21:28:38.044Z,77.71
2019-03-05T21:31:07.809Z,80.00
2019-03-05T21:33:37.339Z,81.28
2019-03-05T21:36:06.705Z,83.06
2019-03-05T21:38:38.318Z,84.06
2019-03-05T21:41:08.025Z,86.82
2019-03-05T21:43:49.256Z,87.09
2019-03-05T21:46:21.697Z,88.43
2019-03-05T21:48:51.149Z,89.38
2019-03-05T21:51:20.535Z,91.56
2019-03-05T21:53:50.085Z,92.83
2019-03-05T21:56:19.643Z,94.24
2019-03-05T21:58:48.997Z,95.68
2019-03-05T22:01:18.339Z,97.32
2019-03-05T22:03:47.975Z,98.81
2019-03-05T22:06:17.389Z,99.34
2019-03-05T22:08:46.790Z,100.00
2019-03-05T22:11:19.106Z,100.00
2019-03-05T22:13:48.485Z,100.00
2019-03-05T22:16:17.820Z,100.00
2019-03-05T22:18:47.360Z,100.00
2019-03-05T22:21:16.692Z,100.00
2019-03-05T22:23:46.030Z,100.00
2019-03-05T22:26:15.391Z,99.99
2019-03-05T22:28:44.710Z,99.57
2019-03-05T22:31:14.156Z,99.65
2019-03-05T22:33:44.932Z,98.82
2019-03-05T22:36:14.307Z,98.90
2019-03-05T22:38:45.596Z,99.51
2019-03-05T22:41:14.933Z,99.13
2019-03-05T22:43:44.314Z,98.14
2019-03-05T22:46:13.684Z,98.11
2019-03-05T22:48:43.046Z,98.15
2019-03-05T22:51:12.763Z,98.37
2019-03-05T22:53:42.139Z,98.14
2019-03-05T22:56:11.499Z,98.43
2019-03-05T22:58:40.857Z,98.29
2019-03-05T23:01:19.669Z,98.53
2019-03-05T23:04:01.343Z,98.25
2019-03-05T23:06:30.803Z,98.48
2019-03-05T23:09:00.190Z,98.48
2019-03-05T23:11:30.147Z,98.01
2019-03-05T23:13:59.515Z,97.07
2019-03-05T23:16:29.147Z,97.46
2019-03-05T23:18:58.531Z,98.02
2019-03-05T23:21:27.894Z,98.28
2019-03-05T23:23:57.262Z,96.19
2019-03-05T23:26:26.595Z,94.59
2019-03-05T23:28:55.933Z,94.14
2019-03-05T23:31:25.332Z,93.80
2019-03-05T23:33:54.901Z,93.61
2019-03-05T23:36:24.337Z,93.28
2019-03-05T23:38:53.815Z,93.36
2019-03-05T23:41:24.592Z,92.40
2019-03-05T23:44:04.962Z,93.33
2019-03-05T23:46:34.324Z,92.42
2019-03-05T23:49:03.687Z,93.58
2019-03-05T23:51:33.064Z,94.15
2019-03-05T23:54:02.639Z,95.04
2019-03-05T23:56:31.931Z,95.35
2019-03-05T23:59:01.364Z,95.91
